MV Evnia — 5BJG3 — position and weather

sailwx.info

Track history (hours):
 
Tides and Currents Weather Stations Pressure Air Temp Water Temp Dewpoint Dewpoint Depression Visibility Wind Speed Wind Dir Waves Ship Positions

MV Evnia

Last reported at 2016-Feb-02 05:05 UTC. Time now 2016-Feb-11 17:06 UTC.
Position N 32°01' E 120°38'.
Warning: this ship's position is 9 days out of date.

Length 190 m; draft 6.6 m.

Type: Cargo ship. MMSI: 209279000.

Date/timePositionNaut miles runAvg speedWind from/ knotsBaromVisibWave heightAir tempDewpointWater temp
2016-Feb-02 05:05N 32°01' E 120°38'0 0.0
2016-Feb-02 02:14N 32°01' E 120°38'2 2.2
2016-Feb-02 01:26N 31°60' E 120°40'8 8.6
2016-Feb-02 00:31N 32°00' E 120°49'1411.0
2016-Feb-01 23:15N 31°48' E 120°56'811.2
2016-Feb-01 22:33N 31°45' E 121°05'1111.4
2016-Feb-01 21:33N 31°38' E 121°15'5 4.9
2016-Feb-01 20:30N 31°35' E 121°20'0 0.0
2016-Feb-01 19:33N 31°35' E 121°20'0 0.0
2016-Feb-01 18:28N 31°35' E 121°20'0 0.0
2016-Feb-01 17:33N 31°35' E 121°20'0 0.0
2016-Feb-01 16:33N 31°35' E 121°20'0 0.0
2016-Feb-01 15:32N 31°35' E 121°20'0 0.0
2016-Feb-01 14:32N 31°35' E 121°20'0 0.0
2016-Feb-01 13:32N 31°35' E 121°20'0 0.1
2016-Feb-01 12:33N 31°35' E 121°20'1 1.1
2016-Feb-01 11:33N 31°34' E 121°19'9 9.3
2016-Feb-01 10:33N 31°28' E 121°28'7 7.4
2016-Feb-01 09:33N 31°23' E 121°35'10 9.4
2016-Feb-01 08:32N 31°18' E 121°44'1612.1
2016-Feb-01 07:14N 31°07' E 121°57'  
Track history (hours):
 
Tides and Currents Weather Stations Pressure Air Temp Water Temp Dewpoint Dewpoint Depression Visibility Wind Speed Wind Dir Waves Ship Positions

MV Evnia

Last reported at 2016-Feb-02 05:05 UTC. Time now 2016-Feb-11 17:06 UTC.
Position N 32°01' E 120°38'.
Warning: this ship's position is 9 days out of date.

Length 190 m; draft 6.6 m.

Type: Cargo ship. MMSI: 209279000.

Date/timePositionNaut miles runAvg speedWind from/ knotsBaromVisibWave heightAir tempDewpointWater temp
2016-Feb-02 05:05N 32°01' E 120°38'0 0.0
2016-Feb-02 02:14N 32°01' E 120°38'2 2.2
2016-Feb-02 01:26N 31°60' E 120°40'8 8.6
2016-Feb-02 00:31N 32°00' E 120°49'1411.0
2016-Feb-01 23:15N 31°48' E 120°56'811.2
2016-Feb-01 22:33N 31°45' E 121°05'1111.4
2016-Feb-01 21:33N 31°38' E 121°15'5 4.9
2016-Feb-01 20:30N 31°35' E 121°20'0 0.0
2016-Feb-01 19:33N 31°35' E 121°20'0 0.0
2016-Feb-01 18:28N 31°35' E 121°20'0 0.0
2016-Feb-01 17:33N 31°35' E 121°20'0 0.0
2016-Feb-01 16:33N 31°35' E 121°20'0 0.0
2016-Feb-01 15:32N 31°35' E 121°20'0 0.0
2016-Feb-01 14:32N 31°35' E 121°20'0 0.0
2016-Feb-01 13:32N 31°35' E 121°20'0 0.1
2016-Feb-01 12:33N 31°35' E 121°20'1 1.1
2016-Feb-01 11:33N 31°34' E 121°19'9 9.3
2016-Feb-01 10:33N 31°28' E 121°28'7 7.4
2016-Feb-01 09:33N 31°23' E 121°35'10 9.4
2016-Feb-01 08:32N 31°18' E 121°44'1612.1
2016-Feb-01 07:14N 31°07' E 121°57'  

Dump ship's entire track history